sensor_id;sensor_type;location;lat;lon;timestamp;P1;durP1;ratioP1;P2;durP2;ratioP2
25247;SDS011;13191;47.472;11.214;2022-07-23T00:01:14;6.60;;;3.55;;
25247;SDS011;13191;47.472;11.214;2022-07-23T00:03:40;6.22;;;3.20;;
25247;SDS011;13191;47.472;11.214;2022-07-23T00:06:05;7.03;;;4.13;;
25247;SDS011;13191;47.472;11.214;2022-07-23T00:08:31;5.03;;;3.25;;
25247;SDS011;13191;47.472;11.214;2022-07-23T00:10:57;6.70;;;3.38;;
25247;SDS011;13191;47.472;11.214;2022-07-23T00:13:22;4.95;;;2.92;;
25247;SDS011;13191;47.472;11.214;2022-07-23T00:15:48;5.28;;;2.95;;
25247;SDS011;13191;47.472;11.214;2022-07-23T00:18:13;7.15;;;3.25;;
25247;SDS011;13191;47.472;11.214;2022-07-23T00:20:39;5.35;;;3.42;;
25247;SDS011;13191;47.472;11.214;2022-07-23T00:23:04;6.15;;;2.95;;
25247;SDS011;13191;47.472;11.214;2022-07-23T00:25:30;5.10;;;3.22;;
25247;SDS011;13191;47.472;11.214;2022-07-23T00:27:56;7.63;;;3.35;;
25247;SDS011;13191;47.472;11.214;2022-07-23T00:30:23;5.95;;;3.47;;
25247;SDS011;13191;47.472;11.214;2022-07-23T00:32:50;5.00;;;2.97;;
25247;SDS011;13191;47.472;11.214;2022-07-23T00:35:19;4.13;;;2.70;;
25247;SDS011;13191;47.472;11.214;2022-07-23T00:37:46;5.47;;;3.58;;
25247;SDS011;13191;47.472;11.214;2022-07-23T00:40:11;4.85;;;3.10;;
25247;SDS011;13191;47.472;11.214;2022-07-23T00:42:38;6.35;;;3.78;;
25247;SDS011;13191;47.472;11.214;2022-07-23T00:45:04;7.03;;;3.90;;
25247;SDS011;13191;47.472;11.214;2022-07-23T00:47:30;5.70;;;3.75;;
25247;SDS011;13191;47.472;11.214;2022-07-23T00:49:55;6.32;;;3.85;;
25247;SDS011;13191;47.472;11.214;2022-07-23T00:52:21;6.60;;;3.72;;
25247;SDS011;13191;47.472;11.214;2022-07-23T00:54:47;6.78;;;4.07;;
25247;SDS011;13191;47.472;11.214;2022-07-23T00:57:13;7.93;;;4.50;;
25247;SDS011;13191;47.472;11.214;2022-07-23T00:59:39;8.65;;;4.03;;
25247;SDS011;13191;47.472;11.214;2022-07-23T01:02:05;9.77;;;4.43;;
25247;SDS011;13191;47.472;11.214;2022-07-23T01:04:31;7.63;;;4.25;;
25247;SDS011;13191;47.472;11.214;2022-07-23T01:06:56;7.88;;;4.60;;
25247;SDS011;13191;47.472;11.214;2022-07-23T01:09:22;7.40;;;4.38;;
25247;SDS011;13191;47.472;11.214;2022-07-23T01:11:48;11.82;;;5.10;;
25247;SDS011;13191;47.472;11.214;2022-07-23T01:14:15;7.40;;;4.30;;
25247;SDS011;13191;47.472;11.214;2022-07-23T01:16:43;9.95;;;5.03;;
25247;SDS011;13191;47.472;11.214;2022-07-23T01:19:11;10.98;;;4.53;;
25247;SDS011;13191;47.472;11.214;2022-07-23T01:21:39;8.23;;;4.90;;
25247;SDS011;13191;47.472;11.214;2022-07-23T01:24:06;7.47;;;3.97;;
25247;SDS011;13191;47.472;11.214;2022-07-23T01:26:32;7.38;;;4.20;;
25247;SDS011;13191;47.472;11.214;2022-07-23T01:28:58;7.53;;;4.38;;
25247;SDS011;13191;47.472;11.214;2022-07-23T01:31:24;8.93;;;4.40;;
25247;SDS011;13191;47.472;11.214;2022-07-23T01:33:50;8.10;;;4.38;;
25247;SDS011;13191;47.472;11.214;2022-07-23T01:36:15;6.30;;;4.07;;
25247;SDS011;13191;47.472;11.214;2022-07-23T01:38:41;7.22;;;4.40;;
25247;SDS011;13191;47.472;11.214;2022-07-23T01:41:06;8.35;;;4.65;;
25247;SDS011;13191;47.472;11.214;2022-07-23T01:43:32;7.28;;;4.65;;
25247;SDS011;13191;47.472;11.214;2022-07-23T01:45:57;10.20;;;3.92;;
25247;SDS011;13191;47.472;11.214;2022-07-23T01:48:23;7.40;;;4.20;;
25247;SDS011;13191;47.472;11.214;2022-07-23T01:50:48;6.47;;;4.25;;
25247;SDS011;13191;47.472;11.214;2022-07-23T01:53:14;7.03;;;3.85;;
25247;SDS011;13191;47.472;11.214;2022-07-23T01:55:40;5.45;;;3.33;;
25247;SDS011;13191;47.472;11.214;2022-07-23T01:58:06;9.10;;;4.47;;
25247;SDS011;13191;47.472;11.214;2022-07-23T02:00:32;5.90;;;3.88;;
25247;SDS011;13191;47.472;11.214;2022-07-23T02:02:57;7.97;;;4.47;;
25247;SDS011;13191;47.472;11.214;2022-07-23T02:05:26;7.63;;;3.97;;
25247;SDS011;13191;47.472;11.214;2022-07-23T02:07:53;8.60;;;4.20;;
25247;SDS011;13191;47.472;11.214;2022-07-23T02:10:20;7.65;;;4.32;;
25247;SDS011;13191;47.472;11.214;2022-07-23T02:12:46;5.78;;;3.50;;
25247;SDS011;13191;47.472;11.214;2022-07-23T02:15:11;9.23;;;4.43;;
25247;SDS011;13191;47.472;11.214;2022-07-23T02:17:37;6.13;;;3.83;;
25247;SDS011;13191;47.472;11.214;2022-07-23T02:20:03;5.93;;;4.03;;
25247;SDS011;13191;47.472;11.214;2022-07-23T02:22:29;6.57;;;3.53;;
25247;SDS011;13191;47.472;11.214;2022-07-23T02:24:55;5.72;;;3.85;;
25247;SDS011;13191;47.472;11.214;2022-07-23T02:27:21;6.53;;;3.95;;
25247;SDS011;13191;47.472;11.214;2022-07-23T02:29:46;10.50;;;3.67;;
25247;SDS011;13191;47.472;11.214;2022-07-23T02:32:12;6.85;;;4.35;;
25247;SDS011;13191;47.472;11.214;2022-07-23T02:34:37;7.90;;;4.18;;
25247;SDS011;13191;47.472;11.214;2022-07-23T02:37:03;14.70;;;3.83;;
25247;SDS011;13191;47.472;11.214;2022-07-23T02:39:28;7.82;;;4.15;;
25247;SDS011;13191;47.472;11.214;2022-07-23T02:41:54;9.32;;;4.35;;
25247;SDS011;13191;47.472;11.214;2022-07-23T02:44:20;10.95;;;4.35;;
25247;SDS011;13191;47.472;11.214;2022-07-23T02:46:45;6.55;;;4.25;;
25247;SDS011;13191;47.472;11.214;2022-07-23T02:49:11;9.65;;;4.38;;
25247;SDS011;13191;47.472;11.214;2022-07-23T02:51:36;9.75;;;4.15;;
25247;SDS011;13191;47.472;11.214;2022-07-23T02:54:02;9.38;;;4.20;;
25247;SDS011;13191;47.472;11.214;2022-07-23T02:56:27;9.13;;;3.85;;
25247;SDS011;13191;47.472;11.214;2022-07-23T02:58:53;8.05;;;3.90;;
25247;SDS011;13191;47.472;11.214;2022-07-23T03:01:18;11.80;;;4.57;;
25247;SDS011;13191;47.472;11.214;2022-07-23T03:03:44;8.30;;;4.18;;
25247;SDS011;13191;47.472;11.214;2022-07-23T03:06:09;7.85;;;4.65;;
25247;SDS011;13191;47.472;11.214;2022-07-23T03:08:35;8.77;;;4.50;;
25247;SDS011;13191;47.472;11.214;2022-07-23T03:11:01;7.20;;;4.60;;
25247;SDS011;13191;47.472;11.214;2022-07-23T03:13:26;7.13;;;4.38;;
25247;SDS011;13191;47.472;11.214;2022-07-23T03:15:52;7.43;;;4.32;;
25247;SDS011;13191;47.472;11.214;2022-07-23T03:18:18;8.30;;;4.68;;
25247;SDS011;13191;47.472;11.214;2022-07-23T03:20:43;8.07;;;5.07;;
25247;SDS011;13191;47.472;11.214;2022-07-23T03:23:09;7.25;;;4.68;;
25247;SDS011;13191;47.472;11.214;2022-07-23T03:25:34;7.60;;;4.82;;
25247;SDS011;13191;47.472;11.214;2022-07-23T03:28:00;9.20;;;4.22;;
25247;SDS011;13191;47.472;11.214;2022-07-23T03:30:25;10.20;;;4.47;;
25247;SDS011;13191;47.472;11.214;2022-07-23T03:32:51;7.88;;;4.88;;
25247;SDS011;13191;47.472;11.214;2022-07-23T03:35:16;8.60;;;5.13;;
25247;SDS011;13191;47.472;11.214;2022-07-23T03:37:42;7.78;;;4.72;;
25247;SDS011;13191;47.472;11.214;2022-07-23T03:40:08;9.05;;;4.90;;
25247;SDS011;13191;47.472;11.214;2022-07-23T03:42:34;9.65;;;5.10;;
25247;SDS011;13191;47.472;11.214;2022-07-23T03:44:59;9.82;;;5.18;;
25247;SDS011;13191;47.472;11.214;2022-07-23T03:47:25;7.82;;;4.65;;
25247;SDS011;13191;47.472;11.214;2022-07-23T03:49:51;10.32;;;5.50;;
25247;SDS011;13191;47.472;11.214;2022-07-23T03:52:16;8.32;;;4.90;;
25247;SDS011;13191;47.472;11.214;2022-07-23T03:54:42;10.88;;;4.85;;
25247;SDS011;13191;47.472;11.214;2022-07-23T03:57:07;8.13;;;4.43;;
25247;SDS011;13191;47.472;11.214;2022-07-23T03:59:33;9.07;;;3.92;;
25247;SDS011;13191;47.472;11.214;2022-07-23T04:01:58;7.70;;;4.35;;
25247;SDS011;13191;47.472;11.214;2022-07-23T04:04:24;7.97;;;3.97;;
25247;SDS011;13191;47.472;11.214;2022-07-23T04:06:49;4.85;;;3.22;;
25247;SDS011;13191;47.472;11.214;2022-07-23T04:09:15;5.50;;;3.65;;
25247;SDS011;13191;47.472;11.214;2022-07-23T04:11:41;6.20;;;3.40;;
25247;SDS011;13191;47.472;11.214;2022-07-23T04:14:06;6.35;;;3.30;;
25247;SDS011;13191;47.472;11.214;2022-07-23T04:16:32;5.15;;;3.22;;
25247;SDS011;13191;47.472;11.214;2022-07-23T04:18:57;5.10;;;3.00;;
25247;SDS011;13191;47.472;11.214;2022-07-23T04:21:23;4.93;;;2.53;;
25247;SDS011;13191;47.472;11.214;2022-07-23T04:23:49;5.07;;;2.95;;
25247;SDS011;13191;47.472;11.214;2022-07-23T04:26:15;6.38;;;4.00;;
25247;SDS011;13191;47.472;11.214;2022-07-23T04:28:41;6.25;;;3.33;;
25247;SDS011;13191;47.472;11.214;2022-07-23T04:31:06;7.30;;;3.83;;
25247;SDS011;13191;47.472;11.214;2022-07-23T04:33:32;8.95;;;5.10;;
25247;SDS011;13191;47.472;11.214;2022-07-23T04:35:58;7.15;;;3.58;;
25247;SDS011;13191;47.472;11.214;2022-07-23T04:38:23;7.35;;;4.25;;
25247;SDS011;13191;47.472;11.214;2022-07-23T04:40:49;7.30;;;4.38;;
25247;SDS011;13191;47.472;11.214;2022-07-23T04:43:14;6.82;;;3.80;;
25247;SDS011;13191;47.472;11.214;2022-07-23T04:45:40;9.70;;;4.18;;
25247;SDS011;13191;47.472;11.214;2022-07-23T04:48:06;8.30;;;4.13;;
25247;SDS011;13191;47.472;11.214;2022-07-23T04:50:31;6.97;;;4.07;;
25247;SDS011;13191;47.472;11.214;2022-07-23T04:52:57;7.55;;;4.13;;
25247;SDS011;13191;47.472;11.214;2022-07-23T04:55:23;8.82;;;4.53;;
25247;SDS011;13191;47.472;11.214;2022-07-23T04:57:49;7.13;;;4.07;;
25247;SDS011;13191;47.472;11.214;2022-07-23T05:00:15;6.57;;;4.03;;
25247;SDS011;13191;47.472;11.214;2022-07-23T05:02:40;7.05;;;4.20;;
25247;SDS011;13191;47.472;11.214;2022-07-23T05:05:06;8.13;;;4.00;;
25247;SDS011;13191;47.472;11.214;2022-07-23T05:07:32;9.88;;;4.32;;
25247;SDS011;13191;47.472;11.214;2022-07-23T05:09:57;7.65;;;4.65;;
25247;SDS011;13191;47.472;11.214;2022-07-23T05:12:23;7.25;;;4.57;;
25247;SDS011;13191;47.472;11.214;2022-07-23T05:14:49;7.65;;;4.07;;
25247;SDS011;13191;47.472;11.214;2022-07-23T05:17:15;6.53;;;4.45;;
25247;SDS011;13191;47.472;11.214;2022-07-23T05:19:40;9.13;;;4.15;;
25247;SDS011;13191;47.472;11.214;2022-07-23T05:22:06;9.02;;;5.28;;
25247;SDS011;13191;47.472;11.214;2022-07-23T05:24:31;7.80;;;4.93;;
25247;SDS011;13191;47.472;11.214;2022-07-23T05:26:57;14.95;;;5.18;;
25247;SDS011;13191;47.472;11.214;2022-07-23T05:29:22;8.05;;;4.60;;
25247;SDS011;13191;47.472;11.214;2022-07-23T05:31:48;7.15;;;4.40;;
25247;SDS011;13191;47.472;11.214;2022-07-23T05:34:13;7.35;;;4.25;;
25247;SDS011;13191;47.472;11.214;2022-07-23T05:36:39;7.30;;;4.28;;
25247;SDS011;13191;47.472;11.214;2022-07-23T05:39:04;9.95;;;4.68;;
25247;SDS011;13191;47.472;11.214;2022-07-23T05:41:30;6.97;;;4.25;;
25247;SDS011;13191;47.472;11.214;2022-07-23T05:43:56;9.10;;;4.68;;
25247;SDS011;13191;47.472;11.214;2022-07-23T05:46:21;8.07;;;4.40;;
25247;SDS011;13191;47.472;11.214;2022-07-23T05:48:47;9.95;;;3.90;;
25247;SDS011;13191;47.472;11.214;2022-07-23T05:51:24;6.93;;;4.60;;
25247;SDS011;13191;47.472;11.214;2022-07-23T05:53:50;6.68;;;3.97;;
25247;SDS011;13191;47.472;11.214;2022-07-23T05:56:16;5.88;;;3.70;;
25247;SDS011;13191;47.472;11.214;2022-07-23T05:58:43;7.50;;;4.22;;
25247;SDS011;13191;47.472;11.214;2022-07-23T06:01:09;8.38;;;4.15;;
25247;SDS011;13191;47.472;11.214;2022-07-23T06:03:36;6.18;;;3.50;;
25247;SDS011;13191;47.472;11.214;2022-07-23T06:06:02;6.72;;;3.58;;
25247;SDS011;13191;47.472;11.214;2022-07-23T06:08:28;9.10;;;4.15;;
25247;SDS011;13191;47.472;11.214;2022-07-23T06:10:54;8.43;;;4.10;;
25247;SDS011;13191;47.472;11.214;2022-07-23T06:13:20;6.07;;;3.42;;
25247;SDS011;13191;47.472;11.214;2022-07-23T06:15:46;7.53;;;4.05;;
25247;SDS011;13191;47.472;11.214;2022-07-23T06:18:11;6.93;;;4.25;;
25247;SDS011;13191;47.472;11.214;2022-07-23T06:20:37;6.65;;;3.17;;
25247;SDS011;13191;47.472;11.214;2022-07-23T06:23:03;6.25;;;3.60;;
25247;SDS011;13191;47.472;11.214;2022-07-23T06:25:29;7.95;;;3.95;;
25247;SDS011;13191;47.472;11.214;2022-07-23T06:27:55;5.75;;;3.45;;
25247;SDS011;13191;47.472;11.214;2022-07-23T06:30:20;8.13;;;4.05;;
25247;SDS011;13191;47.472;11.214;2022-07-23T06:32:46;8.02;;;4.25;;
25247;SDS011;13191;47.472;11.214;2022-07-23T06:35:12;6.57;;;3.58;;
25247;SDS011;13191;47.472;11.214;2022-07-23T06:37:38;5.82;;;3.72;;
25247;SDS011;13191;47.472;11.214;2022-07-23T06:40:03;6.10;;;4.10;;
25247;SDS011;13191;47.472;11.214;2022-07-23T06:42:29;6.70;;;4.03;;
25247;SDS011;13191;47.472;11.214;2022-07-23T06:44:55;6.25;;;3.70;;
25247;SDS011;13191;47.472;11.214;2022-07-23T06:47:21;8.20;;;4.22;;
25247;SDS011;13191;47.472;11.214;2022-07-23T06:49:46;6.32;;;3.80;;
25247;SDS011;13191;47.472;11.214;2022-07-23T06:52:12;5.78;;;3.30;;
25247;SDS011;13191;47.472;11.214;2022-07-23T06:54:37;5.28;;;2.92;;
25247;SDS011;13191;47.472;11.214;2022-07-23T06:57:03;5.95;;;3.05;;
25247;SDS011;13191;47.472;11.214;2022-07-23T06:59:28;4.75;;;2.33;;
25247;SDS011;13191;47.472;11.214;2022-07-23T07:01:54;5.13;;;2.42;;
25247;SDS011;13191;47.472;11.214;2022-07-23T07:04:20;4.65;;;2.63;;
25247;SDS011;13191;47.472;11.214;2022-07-23T07:06:45;3.55;;;2.10;;
25247;SDS011;13191;47.472;11.214;2022-07-23T07:09:11;4.32;;;2.28;;
25247;SDS011;13191;47.472;11.214;2022-07-23T07:11:36;4.15;;;2.00;;
25247;SDS011;13191;47.472;11.214;2022-07-23T07:14:02;4.18;;;2.13;;
25247;SDS011;13191;47.472;11.214;2022-07-23T07:16:29;3.67;;;2.13;;
25247;SDS011;13191;47.472;11.214;2022-07-23T07:18:54;4.68;;;2.72;;
25247;SDS011;13191;47.472;11.214;2022-07-23T07:21:20;3.75;;;2.17;;
25247;SDS011;13191;47.472;11.214;2022-07-23T07:23:46;4.03;;;2.35;;
25247;SDS011;13191;47.472;11.214;2022-07-23T07:26:11;5.35;;;2.47;;
25247;SDS011;13191;47.472;11.214;2022-07-23T07:28:38;2.95;;;2.10;;
25247;SDS011;13191;47.472;11.214;2022-07-23T07:31:03;4.53;;;2.17;;
25247;SDS011;13191;47.472;11.214;2022-07-23T07:33:29;5.20;;;2.45;;
25247;SDS011;13191;47.472;11.214;2022-07-23T07:35:55;3.85;;;2.33;;
25247;SDS011;13191;47.472;11.214;2022-07-23T07:38:20;3.90;;;2.40;;
25247;SDS011;13191;47.472;11.214;2022-07-23T07:40:46;4.82;;;2.63;;
25247;SDS011;13191;47.472;11.214;2022-07-23T07:43:11;5.18;;;3.05;;
25247;SDS011;13191;47.472;11.214;2022-07-23T07:45:37;5.15;;;2.90;;
25247;SDS011;13191;47.472;11.214;2022-07-23T07:48:03;4.65;;;2.72;;
25247;SDS011;13191;47.472;11.214;2022-07-23T07:50:29;6.03;;;3.05;;
25247;SDS011;13191;47.472;11.214;2022-07-23T07:52:55;5.43;;;2.80;;
25247;SDS011;13191;47.472;11.214;2022-07-23T07:55:20;5.28;;;2.80;;
25247;SDS011;13191;47.472;11.214;2022-07-23T07:57:46;4.85;;;2.75;;
25247;SDS011;13191;47.472;11.214;2022-07-23T08:00:12;5.45;;;2.53;;
25247;SDS011;13191;47.472;11.214;2022-07-23T08:02:41;6.38;;;2.95;;
25247;SDS011;13191;47.472;11.214;2022-07-23T08:05:14;6.38;;;3.38;;
25247;SDS011;13191;47.472;11.214;2022-07-23T08:07:43;3.83;;;2.67;;
25247;SDS011;13191;47.472;11.214;2022-07-23T08:10:09;4.32;;;2.80;;
25247;SDS011;13191;47.472;11.214;2022-07-23T08:12:42;4.03;;;2.78;;
25247;SDS011;13191;47.472;11.214;2022-07-23T08:15:13;5.25;;;2.85;;
25247;SDS011;13191;47.472;11.214;2022-07-23T08:17:41;5.07;;;2.90;;
25247;SDS011;13191;47.472;11.214;2022-07-23T08:20:08;4.72;;;2.58;;
25247;SDS011;13191;47.472;11.214;2022-07-23T08:22:51;5.60;;;3.08;;
25247;SDS011;13191;47.472;11.214;2022-07-23T08:25:22;5.43;;;2.55;;
25247;SDS011;13191;47.472;11.214;2022-07-23T08:27:50;5.30;;;3.25;;
25247;SDS011;13191;47.472;11.214;2022-07-23T08:30:16;7.72;;;2.63;;
25247;SDS011;13191;47.472;11.214;2022-07-23T08:35:22;3.97;;;2.60;;
25247;SDS011;13191;47.472;11.214;2022-07-23T08:37:49;4.18;;;2.47;;
25247;SDS011;13191;47.472;11.214;2022-07-23T08:40:14;3.95;;;2.38;;
25247;SDS011;13191;47.472;11.214;2022-07-23T08:42:40;4.15;;;2.30;;
25247;SDS011;13191;47.472;11.214;2022-07-23T08:45:06;4.07;;;2.40;;
25247;SDS011;13191;47.472;11.214;2022-07-23T08:47:33;4.47;;;2.65;;
25247;SDS011;13191;47.472;11.214;2022-07-23T08:50:02;5.78;;;2.17;;
25247;SDS011;13191;47.472;11.214;2022-07-23T08:52:27;5.90;;;2.65;;
25247;SDS011;13191;47.472;11.214;2022-07-23T08:54:55;4.38;;;2.25;;
25247;SDS011;13191;47.472;11.214;2022-07-23T08:57:22;3.97;;;2.47;;
25247;SDS011;13191;47.472;11.214;2022-07-23T08:59:47;3.78;;;2.33;;
25247;SDS011;13191;47.472;11.214;2022-07-23T09:02:13;5.07;;;2.38;;
25247;SDS011;13191;47.472;11.214;2022-07-23T09:04:39;4.20;;;2.40;;
25247;SDS011;13191;47.472;11.214;2022-07-23T09:07:04;6.38;;;1.85;;
25247;SDS011;13191;47.472;11.214;2022-07-23T09:09:30;3.67;;;2.33;;
25247;SDS011;13191;47.472;11.214;2022-07-23T09:12:03;4.93;;;2.00;;
25247;SDS011;13191;47.472;11.214;2022-07-23T09:14:42;4.25;;;2.00;;
25247;SDS011;13191;47.472;11.214;2022-07-23T09:17:15;7.28;;;2.65;;
25247;SDS011;13191;47.472;11.214;2022-07-23T09:19:42;5.15;;;2.30;;
25247;SDS011;13191;47.472;11.214;2022-07-23T09:22:25;3.75;;;2.58;;
25247;SDS011;13191;47.472;11.214;2022-07-23T09:25:05;4.80;;;2.58;;
25247;SDS011;13191;47.472;11.214;2022-07-23T09:27:45;4.00;;;2.53;;
25247;SDS011;13191;47.472;11.214;2022-07-23T09:30:20;5.78;;;2.45;;
25247;SDS011;13191;47.472;11.214;2022-07-23T09:38:23;4.22;;;2.38;;
25247;SDS011;13191;47.472;11.214;2022-07-23T09:41:05;5.25;;;1.98;;
25247;SDS011;13191;47.472;11.214;2022-07-23T09:43:35;4.75;;;2.60;;
25247;SDS011;13191;47.472;11.214;2022-07-23T09:46:21;4.07;;;2.38;;
25247;SDS011;13191;47.472;11.214;2022-07-23T09:48:51;3.78;;;2.35;;
25247;SDS011;13191;47.472;11.214;2022-07-23T09:51:18;3.65;;;2.28;;
25247;SDS011;13191;47.472;11.214;2022-07-23T09:53:53;3.90;;;2.30;;
25247;SDS011;13191;47.472;11.214;2022-07-23T09:56:18;3.50;;;2.13;;
25247;SDS011;13191;47.472;11.214;2022-07-23T09:58:45;4.53;;;2.33;;
25247;SDS011;13191;47.472;11.214;2022-07-23T10:01:16;8.05;;;2.60;;
25247;SDS011;13191;47.472;11.214;2022-07-23T10:03:42;4.07;;;2.25;;
25247;SDS011;13191;47.472;11.214;2022-07-23T10:06:12;3.30;;;2.03;;
25247;SDS011;13191;47.472;11.214;2022-07-23T10:08:42;4.25;;;2.15;;
25247;SDS011;13191;47.472;11.214;2022-07-23T10:11:12;5.65;;;2.58;;
25247;SDS011;13191;47.472;11.214;2022-07-23T10:13:39;7.07;;;2.17;;
25247;SDS011;13191;47.472;11.214;2022-07-23T10:16:18;2.67;;;1.95;;
25247;SDS011;13191;47.472;11.214;2022-07-23T10:18:45;4.53;;;2.58;;
25247;SDS011;13191;47.472;11.214;2022-07-23T10:21:11;3.63;;;2.20;;
25247;SDS011;13191;47.472;11.214;2022-07-23T10:23:45;4.05;;;2.42;;
25247;SDS011;13191;47.472;11.214;2022-07-23T10:32:02;4.47;;;2.10;;
25247;SDS011;13191;47.472;11.214;2022-07-23T10:35:03;3.95;;;2.20;;
25247;SDS011;13191;47.472;11.214;2022-07-23T10:37:44;4.35;;;1.83;;
25247;SDS011;13191;47.472;11.214;2022-07-23T10:40:18;8.77;;;2.90;;
25247;SDS011;13191;47.472;11.214;2022-07-23T10:42:48;3.83;;;2.13;;
25247;SDS011;13191;47.472;11.214;2022-07-23T10:45:24;4.65;;;2.00;;
25247;SDS011;13191;47.472;11.214;2022-07-23T10:47:54;7.63;;;2.33;;
25247;SDS011;13191;47.472;11.214;2022-07-23T10:50:22;4.63;;;2.55;;
25247;SDS011;13191;47.472;11.214;2022-07-23T10:57:57;4.20;;;1.80;;
25247;SDS011;13191;47.472;11.214;2022-07-23T11:00:26;4.45;;;2.33;;
25247;SDS011;13191;47.472;11.214;2022-07-23T11:02:54;3.22;;;2.03;;
25247;SDS011;13191;47.472;11.214;2022-07-23T11:05:25;4.60;;;2.50;;
25247;SDS011;13191;47.472;11.214;2022-07-23T11:10:36;4.05;;;2.20;;
25247;SDS011;13191;47.472;11.214;2022-07-23T11:16:11;3.65;;;2.20;;
25247;SDS011;13191;47.472;11.214;2022-07-23T11:24:10;3.45;;;2.00;;
25247;SDS011;13191;47.472;11.214;2022-07-23T11:26:42;3.88;;;1.98;;
25247;SDS011;13191;47.472;11.214;2022-07-23T11:31:52;4.45;;;2.05;;
25247;SDS011;13191;47.472;11.214;2022-07-23T11:36:57;4.57;;;2.53;;
25247;SDS011;13191;47.472;11.214;2022-07-23T11:39:25;5.90;;;2.25;;
25247;SDS011;13191;47.472;11.214;2022-07-23T11:41:52;4.03;;;2.45;;
25247;SDS011;13191;47.472;11.214;2022-07-23T11:44:27;3.33;;;2.03;;
25247;SDS011;13191;47.472;11.214;2022-07-23T11:46:57;3.00;;;1.80;;
25247;SDS011;13191;47.472;11.214;2022-07-23T11:49:28;15.25;;;3.58;;
25247;SDS011;13191;47.472;11.214;2022-07-23T11:52:07;3.33;;;2.05;;
25247;SDS011;13191;47.472;11.214;2022-07-23T11:54:35;4.22;;;2.38;;
25247;SDS011;13191;47.472;11.214;2022-07-23T11:57:14;4.05;;;2.05;;
25247;SDS011;13191;47.472;11.214;2022-07-23T11:59:40;4.03;;;2.28;;
25247;SDS011;13191;47.472;11.214;2022-07-23T12:02:08;4.57;;;2.35;;
25247;SDS011;13191;47.472;11.214;2022-07-23T12:04:44;3.90;;;2.00;;
25247;SDS011;13191;47.472;11.214;2022-07-23T12:10:15;2.97;;;2.03;;
25247;SDS011;13191;47.472;11.214;2022-07-23T12:15:17;4.47;;;2.45;;
25247;SDS011;13191;47.472;11.214;2022-07-23T12:17:45;3.25;;;1.70;;
25247;SDS011;13191;47.472;11.214;2022-07-23T12:20:13;5.78;;;2.55;;
25247;SDS011;13191;47.472;11.214;2022-07-23T12:22:40;4.47;;;2.30;;
25247;SDS011;13191;47.472;11.214;2022-07-23T12:25:13;4.18;;;2.42;;
25247;SDS011;13191;47.472;11.214;2022-07-23T12:27:41;4.63;;;2.25;;
25247;SDS011;13191;47.472;11.214;2022-07-23T12:32:47;3.63;;;1.98;;
25247;SDS011;13191;47.472;11.214;2022-07-23T12:35:14;3.90;;;2.25;;
25247;SDS011;13191;47.472;11.214;2022-07-23T12:37:46;4.70;;;2.90;;
25247;SDS011;13191;47.472;11.214;2022-07-23T12:42:45;6.80;;;2.40;;
25247;SDS011;13191;47.472;11.214;2022-07-23T12:45:12;7.30;;;2.50;;
25247;SDS011;13191;47.472;11.214;2022-07-23T12:53:14;4.53;;;2.45;;
25247;SDS011;13191;47.472;11.214;2022-07-23T12:55:41;3.50;;;2.17;;
25247;SDS011;13191;47.472;11.214;2022-07-23T12:58:10;3.97;;;2.45;;
25247;SDS011;13191;47.472;11.214;2022-07-23T13:03:20;4.82;;;2.92;;
25247;SDS011;13191;47.472;11.214;2022-07-23T13:05:50;4.28;;;2.35;;
25247;SDS011;13191;47.472;11.214;2022-07-23T13:08:15;4.57;;;3.00;;
25247;SDS011;13191;47.472;11.214;2022-07-23T13:10:41;4.55;;;2.85;;
25247;SDS011;13191;47.472;11.214;2022-07-23T13:13:10;4.32;;;2.55;;
25247;SDS011;13191;47.472;11.214;2022-07-23T13:15:35;6.30;;;2.72;;
25247;SDS011;13191;47.472;11.214;2022-07-23T13:18:01;4.32;;;2.55;;
25247;SDS011;13191;47.472;11.214;2022-07-23T13:20:26;6.00;;;2.60;;
25247;SDS011;13191;47.472;11.214;2022-07-23T13:22:52;4.18;;;2.67;;
25247;SDS011;13191;47.472;11.214;2022-07-23T13:25:18;4.78;;;2.78;;
25247;SDS011;13191;47.472;11.214;2022-07-23T13:27:44;4.28;;;2.33;;
25247;SDS011;13191;47.472;11.214;2022-07-23T13:30:09;5.45;;;2.30;;
25247;SDS011;13191;47.472;11.214;2022-07-23T13:32:36;4.50;;;2.58;;
25247;SDS011;13191;47.472;11.214;2022-07-23T13:35:02;4.93;;;2.83;;
25247;SDS011;13191;47.472;11.214;2022-07-23T13:37:30;5.47;;;2.70;;
25247;SDS011;13191;47.472;11.214;2022-07-23T13:39:55;8.13;;;2.60;;
25247;SDS011;13191;47.472;11.214;2022-07-23T13:42:21;5.40;;;2.95;;
25247;SDS011;13191;47.472;11.214;2022-07-23T13:44:46;7.25;;;3.03;;
25247;SDS011;13191;47.472;11.214;2022-07-23T13:47:12;4.53;;;2.65;;
25247;SDS011;13191;47.472;11.214;2022-07-23T13:49:37;3.92;;;2.50;;
25247;SDS011;13191;47.472;11.214;2022-07-23T13:52:03;4.72;;;2.17;;
25247;SDS011;13191;47.472;11.214;2022-07-23T13:54:29;5.18;;;2.80;;
25247;SDS011;13191;47.472;11.214;2022-07-23T13:56:54;5.03;;;2.83;;
25247;SDS011;13191;47.472;11.214;2022-07-23T13:59:25;5.22;;;2.47;;
25247;SDS011;13191;47.472;11.214;2022-07-23T14:01:51;7.32;;;2.88;;
25247;SDS011;13191;47.472;11.214;2022-07-23T14:04:16;6.90;;;3.20;;
25247;SDS011;13191;47.472;11.214;2022-07-23T14:06:42;3.72;;;2.38;;
25247;SDS011;13191;47.472;11.214;2022-07-23T14:09:07;7.40;;;3.35;;
25247;SDS011;13191;47.472;11.214;2022-07-23T14:11:33;4.13;;;2.42;;
25247;SDS011;13191;47.472;11.214;2022-07-23T14:13:58;6.70;;;3.08;;
25247;SDS011;13191;47.472;11.214;2022-07-23T14:16:25;7.45;;;3.22;;
25247;SDS011;13191;47.472;11.214;2022-07-23T14:18:51;5.10;;;2.92;;
25247;SDS011;13191;47.472;11.214;2022-07-23T14:21:17;4.20;;;2.83;;
25247;SDS011;13191;47.472;11.214;2022-07-23T14:23:42;4.88;;;2.80;;
25247;SDS011;13191;47.472;11.214;2022-07-23T14:26:08;4.45;;;2.60;;
25247;SDS011;13191;47.472;11.214;2022-07-23T14:28:33;5.43;;;3.17;;
25247;SDS011;13191;47.472;11.214;2022-07-23T14:30:59;4.28;;;2.70;;
25247;SDS011;13191;47.472;11.214;2022-07-23T14:33:25;5.47;;;2.85;;
25247;SDS011;13191;47.472;11.214;2022-07-23T14:35:50;4.97;;;2.80;;
25247;SDS011;13191;47.472;11.214;2022-07-23T14:38:16;6.38;;;3.25;;
25247;SDS011;13191;47.472;11.214;2022-07-23T14:40:41;4.57;;;2.55;;
25247;SDS011;13191;47.472;11.214;2022-07-23T14:43:07;5.82;;;3.33;;
25247;SDS011;13191;47.472;11.214;2022-07-23T14:45:34;3.75;;;2.95;;
25247;SDS011;13191;47.472;11.214;2022-07-23T14:47:59;5.07;;;2.33;;
25247;SDS011;13191;47.472;11.214;2022-07-23T14:50:27;4.75;;;2.80;;
25247;SDS011;13191;47.472;11.214;2022-07-23T14:52:52;4.60;;;2.90;;
25247;SDS011;13191;47.472;11.214;2022-07-23T14:55:18;6.18;;;2.65;;
25247;SDS011;13191;47.472;11.214;2022-07-23T14:57:44;9.02;;;3.50;;
25247;SDS011;13191;47.472;11.214;2022-07-23T15:00:11;4.50;;;2.88;;
25247;SDS011;13191;47.472;11.214;2022-07-23T15:02:37;5.30;;;2.83;;
25247;SDS011;13191;47.472;11.214;2022-07-23T15:05:02;5.20;;;2.70;;
25247;SDS011;13191;47.472;11.214;2022-07-23T15:07:29;7.75;;;3.10;;
25247;SDS011;13191;47.472;11.214;2022-07-23T15:09:58;4.65;;;2.78;;
25247;SDS011;13191;47.472;11.214;2022-07-23T15:12:24;4.18;;;2.95;;
25247;SDS011;13191;47.472;11.214;2022-07-23T15:14:50;4.32;;;2.83;;
25247;SDS011;13191;47.472;11.214;2022-07-23T15:17:16;4.70;;;3.05;;
25247;SDS011;13191;47.472;11.214;2022-07-23T15:19:41;5.18;;;2.55;;
25247;SDS011;13191;47.472;11.214;2022-07-23T15:22:07;4.82;;;3.10;;
25247;SDS011;13191;47.472;11.214;2022-07-23T15:24:33;6.70;;;3.05;;
25247;SDS011;13191;47.472;11.214;2022-07-23T15:26:58;7.00;;;3.60;;